sensor_id;sensor_type;location;lat;lon;timestamp;P1;durP1;ratioP1;P2;durP2;ratioP2
10041;SDS011;5061;49.068;12.058;2022-08-25T00:00:27;3.97;;;3.57;;
10041;SDS011;5061;49.068;12.058;2022-08-25T00:03:48;5.17;;;3.23;;
10041;SDS011;5061;49.068;12.058;2022-08-25T00:07:09;3.67;;;3.33;;
10041;SDS011;5061;49.068;12.058;2022-08-25T00:10:30;3.20;;;2.90;;
10041;SDS011;5061;49.068;12.058;2022-08-25T00:13:53;6.60;;;3.43;;
10041;SDS011;5061;49.068;12.058;2022-08-25T00:17:15;3.10;;;2.80;;
10041;SDS011;5061;49.068;12.058;2022-08-25T00:20:35;2.87;;;2.63;;
10041;SDS011;5061;49.068;12.058;2022-08-25T00:23:56;5.67;;;3.53;;
10041;SDS011;5061;49.068;12.058;2022-08-25T00:27:18;2.90;;;2.60;;
10041;SDS011;5061;49.068;12.058;2022-08-25T00:30:39;3.03;;;2.80;;
10041;SDS011;5061;49.068;12.058;2022-08-25T00:34:00;4.23;;;3.00;;
10041;SDS011;5061;49.068;12.058;2022-08-25T00:37:21;3.40;;;2.90;;
10041;SDS011;5061;49.068;12.058;2022-08-25T00:40:43;3.50;;;3.20;;
10041;SDS011;5061;49.068;12.058;2022-08-25T00:44:06;3.70;;;3.27;;
10041;SDS011;5061;49.068;12.058;2022-08-25T00:47:28;3.67;;;3.30;;
10041;SDS011;5061;49.068;12.058;2022-08-25T00:50:50;3.13;;;2.83;;
10041;SDS011;5061;49.068;12.058;2022-08-25T00:54:12;3.30;;;3.00;;
10041;SDS011;5061;49.068;12.058;2022-08-25T00:57:45;4.80;;;2.73;;
10041;SDS011;5061;49.068;12.058;2022-08-25T01:01:09;4.13;;;3.40;;
10041;SDS011;5061;49.068;12.058;2022-08-25T01:04:30;3.50;;;3.03;;
10041;SDS011;5061;49.068;12.058;2022-08-25T01:07:51;3.77;;;3.37;;
10041;SDS011;5061;49.068;12.058;2022-08-25T01:11:12;3.70;;;3.07;;
10041;SDS011;5061;49.068;12.058;2022-08-25T01:14:33;3.17;;;2.87;;
10041;SDS011;5061;49.068;12.058;2022-08-25T01:17:55;3.30;;;3.00;;
10041;SDS011;5061;49.068;12.058;2022-08-25T01:21:17;3.70;;;3.30;;
10041;SDS011;5061;49.068;12.058;2022-08-25T01:24:49;4.50;;;3.70;;
10041;SDS011;5061;49.068;12.058;2022-08-25T01:28:26;3.83;;;3.30;;
10041;SDS011;5061;49.068;12.058;2022-08-25T01:31:48;5.53;;;3.80;;
10041;SDS011;5061;49.068;12.058;2022-08-25T01:35:15;4.80;;;3.97;;
10041;SDS011;5061;49.068;12.058;2022-08-25T01:38:36;4.17;;;3.73;;
10041;SDS011;5061;49.068;12.058;2022-08-25T01:42:07;5.70;;;3.83;;
10041;SDS011;5061;49.068;12.058;2022-08-25T01:45:38;3.80;;;3.40;;
10041;SDS011;5061;49.068;12.058;2022-08-25T01:49:00;5.73;;;4.60;;
10041;SDS011;5061;49.068;12.058;2022-08-25T01:52:24;5.40;;;4.37;;
10041;SDS011;5061;49.068;12.058;2022-08-25T01:55:47;4.60;;;4.13;;
10041;SDS011;5061;49.068;12.058;2022-08-25T01:59:10;4.10;;;3.70;;
10041;SDS011;5061;49.068;12.058;2022-08-25T02:02:35;4.70;;;3.60;;
10041;SDS011;5061;49.068;12.058;2022-08-25T02:05:56;4.30;;;3.90;;
10041;SDS011;5061;49.068;12.058;2022-08-25T02:09:17;4.07;;;3.67;;
10041;SDS011;5061;49.068;12.058;2022-08-25T02:12:38;5.43;;;4.57;;
10041;SDS011;5061;49.068;12.058;2022-08-25T02:15:59;4.03;;;3.63;;
10041;SDS011;5061;49.068;12.058;2022-08-25T02:19:21;3.93;;;3.53;;
10041;SDS011;5061;49.068;12.058;2022-08-25T02:22:43;3.67;;;3.30;;
10041;SDS011;5061;49.068;12.058;2022-08-25T02:26:04;6.50;;;4.30;;
10041;SDS011;5061;49.068;12.058;2022-08-25T02:29:24;3.80;;;3.50;;
10041;SDS011;5061;49.068;12.058;2022-08-25T02:32:45;4.60;;;4.10;;
10041;SDS011;5061;49.068;12.058;2022-08-25T02:36:06;4.50;;;4.10;;
10041;SDS011;5061;49.068;12.058;2022-08-25T02:39:26;5.40;;;3.53;;
10041;SDS011;5061;49.068;12.058;2022-08-25T02:42:47;4.60;;;4.03;;
10041;SDS011;5061;49.068;12.058;2022-08-25T02:46:09;4.70;;;4.23;;
10041;SDS011;5061;49.068;12.058;2022-08-25T02:49:30;4.67;;;4.17;;
10041;SDS011;5061;49.068;12.058;2022-08-25T02:52:51;4.07;;;3.60;;
10041;SDS011;5061;49.068;12.058;2022-08-25T02:56:12;3.73;;;3.33;;
10041;SDS011;5061;49.068;12.058;2022-08-25T02:59:34;3.70;;;3.30;;
10041;SDS011;5061;49.068;12.058;2022-08-25T03:02:55;4.27;;;3.87;;
10041;SDS011;5061;49.068;12.058;2022-08-25T03:06:16;4.63;;;3.87;;
10041;SDS011;5061;49.068;12.058;2022-08-25T03:09:41;4.23;;;3.83;;
10041;SDS011;5061;49.068;12.058;2022-08-25T03:13:03;5.17;;;4.67;;
10041;SDS011;5061;49.068;12.058;2022-08-25T03:16:24;4.07;;;3.67;;
10041;SDS011;5061;49.068;12.058;2022-08-25T03:19:45;4.23;;;3.57;;
10041;SDS011;5061;49.068;12.058;2022-08-25T03:23:05;4.73;;;4.23;;
10041;SDS011;5061;49.068;12.058;2022-08-25T03:26:26;3.93;;;3.53;;
10041;SDS011;5061;49.068;12.058;2022-08-25T03:30:05;4.27;;;3.17;;
10041;SDS011;5061;49.068;12.058;2022-08-25T03:33:27;4.37;;;3.87;;
10041;SDS011;5061;49.068;12.058;2022-08-25T03:36:50;4.07;;;3.70;;
10041;SDS011;5061;49.068;12.058;2022-08-25T03:40:12;4.77;;;4.20;;
10041;SDS011;5061;49.068;12.058;2022-08-25T03:43:36;4.27;;;3.70;;
10041;SDS011;5061;49.068;12.058;2022-08-25T03:46:57;5.50;;;4.17;;
10041;SDS011;5061;49.068;12.058;2022-08-25T03:50:18;3.07;;;2.77;;
10041;SDS011;5061;49.068;12.058;2022-08-25T03:53:40;4.27;;;3.70;;
10041;SDS011;5061;49.068;12.058;2022-08-25T03:57:01;4.30;;;3.60;;
10041;SDS011;5061;49.068;12.058;2022-08-25T04:00:22;4.33;;;3.67;;
10041;SDS011;5061;49.068;12.058;2022-08-25T04:03:43;4.70;;;3.97;;
10041;SDS011;5061;49.068;12.058;2022-08-25T04:07:04;4.63;;;4.23;;
10041;SDS011;5061;49.068;12.058;2022-08-25T04:10:25;4.00;;;3.60;;
10041;SDS011;5061;49.068;12.058;2022-08-25T04:13:46;5.30;;;3.87;;
10041;SDS011;5061;49.068;12.058;2022-08-25T04:17:07;5.57;;;4.20;;
10041;SDS011;5061;49.068;12.058;2022-08-25T04:20:28;5.10;;;4.60;;
10041;SDS011;5061;49.068;12.058;2022-08-25T04:23:49;6.43;;;5.10;;
10041;SDS011;5061;49.068;12.058;2022-08-25T04:27:11;5.60;;;4.57;;
10041;SDS011;5061;49.068;12.058;2022-08-25T04:30:33;6.03;;;5.13;;
10041;SDS011;5061;49.068;12.058;2022-08-25T04:33:54;6.17;;;5.57;;
10041;SDS011;5061;49.068;12.058;2022-08-25T04:37:15;5.10;;;4.40;;
10041;SDS011;5061;49.068;12.058;2022-08-25T04:40:35;6.40;;;5.23;;
10041;SDS011;5061;49.068;12.058;2022-08-25T04:43:57;5.90;;;4.67;;
10041;SDS011;5061;49.068;12.058;2022-08-25T04:47:18;7.63;;;5.70;;
10041;SDS011;5061;49.068;12.058;2022-08-25T04:50:39;5.63;;;5.03;;
10041;SDS011;5061;49.068;12.058;2022-08-25T04:54:01;6.40;;;4.83;;
10041;SDS011;5061;49.068;12.058;2022-08-25T04:57:24;6.63;;;5.53;;
10041;SDS011;5061;49.068;12.058;2022-08-25T05:00:45;5.50;;;4.90;;
10041;SDS011;5061;49.068;12.058;2022-08-25T05:04:06;7.40;;;6.00;;
10041;SDS011;5061;49.068;12.058;2022-08-25T05:07:29;7.23;;;5.53;;
10041;SDS011;5061;49.068;12.058;2022-08-25T05:10:50;5.23;;;4.73;;
10041;SDS011;5061;49.068;12.058;2022-08-25T05:14:13;5.97;;;5.07;;
10041;SDS011;5061;49.068;12.058;2022-08-25T05:17:37;5.67;;;4.27;;
10041;SDS011;5061;49.068;12.058;2022-08-25T05:21:08;6.10;;;5.10;;
10041;SDS011;5061;49.068;12.058;2022-08-25T05:24:31;6.70;;;5.97;;
10041;SDS011;5061;49.068;12.058;2022-08-25T05:27:51;5.00;;;4.50;;
10041;SDS011;5061;49.068;12.058;2022-08-25T05:31:12;5.73;;;4.83;;
10041;SDS011;5061;49.068;12.058;2022-08-25T05:34:34;7.10;;;5.43;;
10041;SDS011;5061;49.068;12.058;2022-08-25T05:37:55;4.80;;;4.30;;
10041;SDS011;5061;49.068;12.058;2022-08-25T05:41:17;5.50;;;4.70;;
10041;SDS011;5061;49.068;12.058;2022-08-25T05:44:40;4.93;;;4.43;;
10041;SDS011;5061;49.068;12.058;2022-08-25T05:48:01;6.70;;;5.30;;
10041;SDS011;5061;49.068;12.058;2022-08-25T05:51:21;6.30;;;5.03;;
10041;SDS011;5061;49.068;12.058;2022-08-25T05:54:42;5.53;;;4.63;;
10041;SDS011;5061;49.068;12.058;2022-08-25T05:58:03;7.00;;;5.67;;
10041;SDS011;5061;49.068;12.058;2022-08-25T06:01:25;6.60;;;5.27;;
10041;SDS011;5061;49.068;12.058;2022-08-25T06:05:07;7.53;;;6.33;;
10041;SDS011;5061;49.068;12.058;2022-08-25T06:08:28;6.20;;;5.07;;
10041;SDS011;5061;49.068;12.058;2022-08-25T06:11:52;5.70;;;4.80;;
10041;SDS011;5061;49.068;12.058;2022-08-25T06:15:15;5.80;;;4.90;;
10041;SDS011;5061;49.068;12.058;2022-08-25T06:18:40;6.67;;;5.37;;
10041;SDS011;5061;49.068;12.058;2022-08-25T06:22:01;4.83;;;4.00;;
10041;SDS011;5061;49.068;12.058;2022-08-25T06:25:22;4.90;;;3.27;;
10041;SDS011;5061;49.068;12.058;2022-08-25T06:28:44;4.67;;;3.87;;
10041;SDS011;5061;49.068;12.058;2022-08-25T06:32:05;4.30;;;3.70;;
10041;SDS011;5061;49.068;12.058;2022-08-25T06:35:26;5.83;;;3.93;;
10041;SDS011;5061;49.068;12.058;2022-08-25T06:38:47;3.47;;;3.17;;
10041;SDS011;5061;49.068;12.058;2022-08-25T06:42:07;4.37;;;3.53;;
10041;SDS011;5061;49.068;12.058;2022-08-25T06:45:28;3.90;;;3.53;;
10041;SDS011;5061;49.068;12.058;2022-08-25T06:48:49;6.03;;;3.60;;
10041;SDS011;5061;49.068;12.058;2022-08-25T06:52:11;3.43;;;3.13;;
10041;SDS011;5061;49.068;12.058;2022-08-25T06:55:32;3.80;;;3.43;;
10041;SDS011;5061;49.068;12.058;2022-08-25T06:58:54;3.43;;;3.13;;
10041;SDS011;5061;49.068;12.058;2022-08-25T07:02:14;5.33;;;4.30;;
10041;SDS011;5061;49.068;12.058;2022-08-25T07:05:35;4.00;;;3.37;;
10041;SDS011;5061;49.068;12.058;2022-08-25T07:08:56;4.30;;;3.83;;
10041;SDS011;5061;49.068;12.058;2022-08-25T07:12:17;4.03;;;3.63;;
10041;SDS011;5061;49.068;12.058;2022-08-25T07:15:38;5.10;;;4.20;;
10041;SDS011;5061;49.068;12.058;2022-08-25T07:19:00;3.13;;;2.83;;
10041;SDS011;5061;49.068;12.058;2022-08-25T07:22:21;3.57;;;3.23;;
10041;SDS011;5061;49.068;12.058;2022-08-25T07:25:42;2.70;;;2.30;;
10041;SDS011;5061;49.068;12.058;2022-08-25T07:29:07;2.70;;;2.50;;
10041;SDS011;5061;49.068;12.058;2022-08-25T07:32:30;2.07;;;1.97;;
10041;SDS011;5061;49.068;12.058;2022-08-25T07:35:50;2.70;;;2.50;;
10041;SDS011;5061;49.068;12.058;2022-08-25T07:39:11;3.57;;;2.60;;
10041;SDS011;5061;49.068;12.058;2022-08-25T07:42:32;2.60;;;2.40;;
10041;SDS011;5061;49.068;12.058;2022-08-25T07:45:52;2.50;;;2.30;;
10041;SDS011;5061;49.068;12.058;2022-08-25T07:49:13;2.30;;;2.10;;
10041;SDS011;5061;49.068;12.058;2022-08-25T07:52:34;2.97;;;1.67;;
10041;SDS011;5061;49.068;12.058;2022-08-25T07:55:55;2.57;;;2.37;;
10041;SDS011;5061;49.068;12.058;2022-08-25T07:59:15;2.60;;;2.40;;
10041;SDS011;5061;49.068;12.058;2022-08-25T08:02:37;2.33;;;2.13;;
10041;SDS011;5061;49.068;12.058;2022-08-25T08:05:58;1.50;;;1.40;;
10041;SDS011;5061;49.068;12.058;2022-08-25T08:09:20;3.27;;;2.77;;
10041;SDS011;5061;49.068;12.058;2022-08-25T08:12:40;2.57;;;2.37;;
10041;SDS011;5061;49.068;12.058;2022-08-25T08:16:01;2.57;;;2.33;;
10041;SDS011;5061;49.068;12.058;2022-08-25T08:19:27;2.73;;;2.53;;
10041;SDS011;5061;49.068;12.058;2022-08-25T08:22:47;2.93;;;2.63;;
10041;SDS011;5061;49.068;12.058;2022-08-25T08:26:08;4.10;;;3.70;;
10041;SDS011;5061;49.068;12.058;2022-08-25T08:29:29;3.97;;;3.30;;
10041;SDS011;5061;49.068;12.058;2022-08-25T08:32:49;3.80;;;2.33;;
10041;SDS011;5061;49.068;12.058;2022-08-25T08:36:10;3.17;;;2.70;;
10041;SDS011;5061;49.068;12.058;2022-08-25T08:39:31;2.97;;;2.77;;
10041;SDS011;5061;49.068;12.058;2022-08-25T08:46:17;4.33;;;3.70;;
10041;SDS011;5061;49.068;12.058;2022-08-25T08:49:43;2.30;;;2.10;;
10041;SDS011;5061;49.068;12.058;2022-08-25T08:56:52;5.60;;;4.83;;
10041;SDS011;5061;49.068;12.058;2022-08-25T09:00:21;5.53;;;4.90;;
10041;SDS011;5061;49.068;12.058;2022-08-25T09:03:50;4.37;;;3.97;;
10041;SDS011;5061;49.068;12.058;2022-08-25T09:07:20;5.90;;;4.90;;
10041;SDS011;5061;49.068;12.058;2022-08-25T09:18:05;4.00;;;3.67;;
10041;SDS011;5061;49.068;12.058;2022-08-25T09:28:50;3.60;;;3.30;;
10041;SDS011;5061;49.068;12.058;2022-08-25T09:32:18;3.73;;;3.43;;
10041;SDS011;5061;49.068;12.058;2022-08-25T09:35:41;3.70;;;3.40;;
10041;SDS011;5061;49.068;12.058;2022-08-25T09:39:04;3.33;;;2.93;;
10041;SDS011;5061;49.068;12.058;2022-08-25T09:42:44;3.93;;;3.53;;
10041;SDS011;5061;49.068;12.058;2022-08-25T09:46:13;3.47;;;3.17;;
10041;SDS011;5061;49.068;12.058;2022-08-25T09:49:40;3.63;;;3.33;;
10041;SDS011;5061;49.068;12.058;2022-08-25T09:53:11;3.83;;;3.17;;
10041;SDS011;5061;49.068;12.058;2022-08-25T09:56:34;3.37;;;3.07;;
10041;SDS011;5061;49.068;12.058;2022-08-25T10:00:19;3.57;;;3.23;;
10041;SDS011;5061;49.068;12.058;2022-08-25T10:04:01;3.43;;;2.80;;
10041;SDS011;5061;49.068;12.058;2022-08-25T10:07:47;2.77;;;2.57;;
10041;SDS011;5061;49.068;12.058;2022-08-25T10:11:35;2.40;;;2.20;;
10041;SDS011;5061;49.068;12.058;2022-08-25T10:15:14;3.20;;;2.90;;
10041;SDS011;5061;49.068;12.058;2022-08-25T10:18:38;2.20;;;2.00;;
10041;SDS011;5061;49.068;12.058;2022-08-25T10:25:27;1.67;;;1.57;;
10041;SDS011;5061;49.068;12.058;2022-08-25T10:29:05;2.53;;;2.27;;
10041;SDS011;5061;49.068;12.058;2022-08-25T10:33:01;5.07;;;4.60;;
10041;SDS011;5061;49.068;12.058;2022-08-25T10:36:52;2.70;;;2.50;;
10041;SDS011;5061;49.068;12.058;2022-08-25T10:40:22;2.93;;;2.67;;
10041;SDS011;5061;49.068;12.058;2022-08-25T10:55:17;2.53;;;2.33;;
10041;SDS011;5061;49.068;12.058;2022-08-25T11:02:37;4.23;;;3.80;;
10041;SDS011;5061;49.068;12.058;2022-08-25T11:10:19;3.30;;;3.00;;
10041;SDS011;5061;49.068;12.058;2022-08-25T11:13:47;3.80;;;3.50;;
10041;SDS011;5061;49.068;12.058;2022-08-25T11:21:00;2.23;;;2.07;;
10041;SDS011;5061;49.068;12.058;2022-08-25T11:32:21;2.73;;;2.53;;
10041;SDS011;5061;49.068;12.058;2022-08-25T11:35:54;2.37;;;2.17;;
10041;SDS011;5061;49.068;12.058;2022-08-25T11:50:28;1.87;;;1.77;;
10041;SDS011;5061;49.068;12.058;2022-08-25T11:57:35;2.60;;;2.40;;
10041;SDS011;5061;49.068;12.058;2022-08-25T12:01:04;2.63;;;2.43;;
10041;SDS011;5061;49.068;12.058;2022-08-25T12:04:38;3.83;;;2.93;;
10041;SDS011;5061;49.068;12.058;2022-08-25T12:08:04;6.07;;;3.77;;
10041;SDS011;5061;49.068;12.058;2022-08-25T12:11:45;5.10;;;3.63;;
10041;SDS011;5061;49.068;12.058;2022-08-25T12:22:52;3.67;;;3.30;;
10041;SDS011;5061;49.068;12.058;2022-08-25T12:26:20;5.40;;;3.07;;
10041;SDS011;5061;49.068;12.058;2022-08-25T12:37:14;3.90;;;3.50;;
10041;SDS011;5061;49.068;12.058;2022-08-25T12:44:09;4.40;;;3.40;;
10041;SDS011;5061;49.068;12.058;2022-08-25T12:47:52;2.53;;;2.33;;
10041;SDS011;5061;49.068;12.058;2022-08-25T12:51:17;7.23;;;4.20;;
10041;SDS011;5061;49.068;12.058;2022-08-25T12:54:56;4.37;;;3.40;;
10041;SDS011;5061;49.068;12.058;2022-08-25T12:58:19;3.67;;;3.37;;
10041;SDS011;5061;49.068;12.058;2022-08-25T13:01:52;4.87;;;3.60;;
10041;SDS011;5061;49.068;12.058;2022-08-25T13:12:26;2.27;;;1.90;;
10041;SDS011;5061;49.068;12.058;2022-08-25T13:15:59;3.40;;;2.53;;
10041;SDS011;5061;49.068;12.058;2022-08-25T13:19:24;5.10;;;2.57;;
10041;SDS011;5061;49.068;12.058;2022-08-25T13:22:46;2.70;;;2.33;;
10041;SDS011;5061;49.068;12.058;2022-08-25T13:26:13;2.40;;;2.17;;
10041;SDS011;5061;49.068;12.058;2022-08-25T13:29:48;9.47;;;3.13;;
10041;SDS011;5061;49.068;12.058;2022-08-25T13:33:20;2.80;;;2.60;;
10041;SDS011;5061;49.068;12.058;2022-08-25T13:36:43;4.00;;;3.60;;
10041;SDS011;5061;49.068;12.058;2022-08-25T13:40:26;3.13;;;2.83;;
10041;SDS011;5061;49.068;12.058;2022-08-25T13:43:49;4.20;;;3.40;;
10041;SDS011;5061;49.068;12.058;2022-08-25T13:47:14;2.13;;;2.00;;
10041;SDS011;5061;49.068;12.058;2022-08-25T13:50:50;2.50;;;2.30;;
10041;SDS011;5061;49.068;12.058;2022-08-25T13:54:21;3.20;;;2.90;;
10041;SDS011;5061;49.068;12.058;2022-08-25T13:58:04;3.80;;;2.83;;
10041;SDS011;5061;49.068;12.058;2022-08-25T14:01:34;2.20;;;2.00;;
10041;SDS011;5061;49.068;12.058;2022-08-25T14:05:03;3.33;;;2.20;;
10041;SDS011;5061;49.068;12.058;2022-08-25T14:08:29;2.53;;;2.33;;
10041;SDS011;5061;49.068;12.058;2022-08-25T14:11:56;5.43;;;2.80;;
10041;SDS011;5061;49.068;12.058;2022-08-25T14:18:48;3.33;;;3.03;;
10041;SDS011;5061;49.068;12.058;2022-08-25T14:22:11;3.07;;;2.77;;
10041;SDS011;5061;49.068;12.058;2022-08-25T14:25:33;3.30;;;3.00;;
10041;SDS011;5061;49.068;12.058;2022-08-25T14:28:54;5.63;;;3.80;;
10041;SDS011;5061;49.068;12.058;2022-08-25T14:32:15;3.90;;;3.43;;
10041;SDS011;5061;49.068;12.058;2022-08-25T14:35:36;4.47;;;3.50;;
10041;SDS011;5061;49.068;12.058;2022-08-25T14:38:57;6.53;;;4.17;;
10041;SDS011;5061;49.068;12.058;2022-08-25T14:42:18;3.83;;;3.53;;
10041;SDS011;5061;49.068;12.058;2022-08-25T14:45:41;7.13;;;3.60;;
10041;SDS011;5061;49.068;12.058;2022-08-25T14:49:05;6.80;;;4.40;;
10041;SDS011;5061;49.068;12.058;2022-08-25T14:52:28;6.20;;;4.03;;
10041;SDS011;5061;49.068;12.058;2022-08-25T14:55:49;6.73;;;3.57;;
10041;SDS011;5061;49.068;12.058;2022-08-25T14:59:13;5.00;;;3.83;;
10041;SDS011;5061;49.068;12.058;2022-08-25T15:02:34;4.57;;;4.00;;
10041;SDS011;5061;49.068;12.058;2022-08-25T15:06:01;4.80;;;3.07;;
10041;SDS011;5061;49.068;12.058;2022-08-25T15:09:23;3.07;;;2.70;;
10041;SDS011;5061;49.068;12.058;2022-08-25T15:12:43;3.07;;;2.77;;
10041;SDS011;5061;49.068;12.058;2022-08-25T15:16:04;4.50;;;2.90;;
10041;SDS011;5061;49.068;12.058;2022-08-25T15:19:26;4.47;;;3.57;;
10041;SDS011;5061;49.068;12.058;2022-08-25T15:22:47;3.53;;;3.23;;
10041;SDS011;5061;49.068;12.058;2022-08-25T15:26:08;4.00;;;3.60;;
10041;SDS011;5061;49.068;12.058;2022-08-25T15:29:32;3.40;;;3.10;;
10041;SDS011;5061;49.068;12.058;2022-08-25T15:32:53;4.63;;;3.77;;
10041;SDS011;5061;49.068;12.058;2022-08-25T15:36:18;5.07;;;3.80;;
10041;SDS011;5061;49.068;12.058;2022-08-25T15:39:43;3.87;;;3.30;;
10041;SDS011;5061;49.068;12.058;2022-08-25T15:43:05;3.80;;;3.23;;
10041;SDS011;5061;49.068;12.058;2022-08-25T15:46:27;3.70;;;2.77;;
10041;SDS011;5061;49.068;12.058;2022-08-25T15:49:49;4.60;;;2.57;;
10041;SDS011;5061;49.068;12.058;2022-08-25T15:53:13;3.10;;;2.53;;
10041;SDS011;5061;49.068;12.058;2022-08-25T15:56:34;2.50;;;2.30;;
10041;SDS011;5061;49.068;12.058;2022-08-25T15:59:54;2.00;;;1.90;;
10041;SDS011;5061;49.068;12.058;2022-08-25T16:03:15;2.67;;;2.27;;
10041;SDS011;5061;49.068;12.058;2022-08-25T16:06:38;3.60;;;2.67;;
10041;SDS011;5061;49.068;12.058;2022-08-25T16:09:59;3.10;;;2.80;;
10041;SDS011;5061;49.068;12.058;2022-08-25T16:13:20;4.07;;;2.37;;
10041;SDS011;5061;49.068;12.058;2022-08-25T16:16:41;1.80;;;1.70;;
10041;SDS011;5061;49.068;12.058;2022-08-25T16:20:03;2.60;;;2.27;;
10041;SDS011;5061;49.068;12.058;2022-08-25T16:23:23;1.97;;;1.80;;
10041;SDS011;5061;49.068;12.058;2022-08-25T16:26:44;2.40;;;2.20;;
10041;SDS011;5061;49.068;12.058;2022-08-25T16:30:06;2.97;;;2.67;;
10041;SDS011;5061;49.068;12.058;2022-08-25T16:33:28;2.80;;;2.07;;
10041;SDS011;5061;49.068;12.058;2022-08-25T16:36:49;2.43;;;2.00;;
10041;SDS011;5061;49.068;12.058;2022-08-25T16:40:10;2.80;;;2.20;;
10041;SDS011;5061;49.068;12.058;2022-08-25T16:43:32;2.27;;;2.17;;
10041;SDS011;5061;49.068;12.058;2022-08-25T16:46:53;2.40;;;2.20;;
10041;SDS011;5061;49.068;12.058;2022-08-25T16:50:15;2.03;;;1.83;;
10041;SDS011;5061;49.068;12.058;2022-08-25T16:53:36;2.53;;;2.20;;
10041;SDS011;5061;49.068;12.058;2022-08-25T16:57:19;2.37;;;2.17;;
10041;SDS011;5061;49.068;12.058;2022-08-25T17:01:07;3.10;;;2.30;;
10041;SDS011;5061;49.068;12.058;2022-08-25T17:04:31;2.77;;;2.17;;
10041;SDS011;5061;49.068;12.058;2022-08-25T17:07:52;2.30;;;2.10;;
10041;SDS011;5061;49.068;12.058;2022-08-25T17:11:33;2.20;;;2.00;;
10041;SDS011;5061;49.068;12.058;2022-08-25T17:15:01;2.40;;;2.20;;
10041;SDS011;5061;49.068;12.058;2022-08-25T17:18:22;2.00;;;1.80;;
10041;SDS011;5061;49.068;12.058;2022-08-25T17:21:43;2.17;;;1.97;;
10041;SDS011;5061;49.068;12.058;2022-08-25T17:25:07;2.47;;;1.87;;
10041;SDS011;5061;49.068;12.058;2022-08-25T17:28:27;1.80;;;1.50;;
10041;SDS011;5061;49.068;12.058;2022-08-25T17:31:51;2.20;;;1.60;;
10041;SDS011;5061;49.068;12.058;2022-08-25T17:35:12;2.30;;;1.90;;
10041;SDS011;5061;49.068;12.058;2022-08-25T17:38:33;2.07;;;1.83;;
10041;SDS011;5061;49.068;12.058;2022-08-25T17:41:55;2.03;;;1.83;;
10041;SDS011;5061;49.068;12.058;2022-08-25T17:45:16;2.80;;;2.03;;
10041;SDS011;5061;49.068;12.058;2022-08-25T17:48:37;1.97;;;1.77;;
10041;SDS011;5061;49.068;12.058;2022-08-25T17:51:58;2.60;;;1.80;;
10041;SDS011;5061;49.068;12.058;2022-08-25T17:55:19;1.53;;;1.43;;
10041;SDS011;5061;49.068;12.058;2022-08-25T17:58:41;2.07;;;1.90;;
10041;SDS011;5061;49.068;12.058;2022-08-25T18:02:03;2.60;;;2.20;;
10041;SDS011;5061;49.068;12.058;2022-08-25T18:05:24;2.20;;;1.90;;
10041;SDS011;5061;49.068;12.058;2022-08-25T18:08:45;1.50;;;1.40;;
10041;SDS011;5061;49.068;12.058;2022-08-25T18:12:06;2.30;;;2.10;;
10041;SDS011;5061;49.068;12.058;2022-08-25T18:15:27;3.20;;;2.00;;
10041;SDS011;5061;49.068;12.058;2022-08-25T18:18:49;1.90;;;1.80;;
10041;SDS011;5061;49.068;12.058;2022-08-25T18:22:10;2.17;;;1.97;;
10041;SDS011;5061;49.068;12.058;2022-08-25T18:25:31;2.00;;;1.80;;
10041;SDS011;5061;49.068;12.058;2022-08-25T18:28:52;2.10;;;1.80;;
10041;SDS011;5061;49.068;12.058;2022-08-25T18:32:13;3.87;;;2.07;;
10041;SDS011;5061;49.068;12.058;2022-08-25T18:35:33;1.97;;;1.87;;
10041;SDS011;5061;49.068;12.058;2022-08-25T18:38:54;2.30;;;2.10;;
10041;SDS011;5061;49.068;12.058;2022-08-25T18:42:33;1.90;;;1.80;;
10041;SDS011;5061;49.068;12.058;2022-08-25T18:45:55;3.33;;;1.70;;
10041;SDS011;5061;49.068;12.058;2022-08-25T18:49:18;2.33;;;2.13;;
10041;SDS011;5061;49.068;12.058;2022-08-25T18:52:38;1.93;;;1.73;;
10041;SDS011;5061;49.068;12.058;2022-08-25T18:56:00;3.37;;;2.40;;
10041;SDS011;5061;49.068;12.058;2022-08-25T18:59:20;2.30;;;2.00;;
10041;SDS011;5061;49.068;12.058;2022-08-25T19:02:47;4.37;;;2.40;;
10041;SDS011;5061;49.068;12.058;2022-08-25T19:06:09;2.10;;;1.90;;
10041;SDS011;5061;49.068;12.058;2022-08-25T19:09:30;3.00;;;1.97;;
10041;SDS011;5061;49.068;12.058;2022-08-25T19:12:51;4.40;;;2.20;;
10041;SDS011;5061;49.068;12.058;2022-08-25T19:16:14;2.43;;;2.10;;
10041;SDS011;5061;49.068;12.058;2022-08-25T19:19:37;2.27;;;2.07;;
10041;SDS011;5061;49.068;12.058;2022-08-25T19:22:57;2.90;;;2.50;;
10041;SDS011;5061;49.068;12.058;2022-08-25T19:26:19;2.43;;;2.07;;
10041;SDS011;5061;49.068;12.058;2022-08-25T19:29:41;2.50;;;2.03;;
10041;SDS011;5061;49.068;12.058;2022-08-25T19:33:02;2.73;;;2.53;;
10041;SDS011;5061;49.068;12.058;2022-08-25T19:36:24;2.50;;;2.30;;
10041;SDS011;5061;49.068;12.058;2022-08-25T19:39:48;4.03;;;2.60;;
10041;SDS011;5061;49.068;12.058;2022-08-25T19:43:12;2.63;;;2.33;;
10041;SDS011;5061;49.068;12.058;2022-08-25T19:46:37;4.00;;;2.00;;
10041;SDS011;5061;49.068;12.058;2022-08-25T19:50:00;2.30;;;2.10;;
10041;SDS011;5061;49.068;12.058;2022-08-25T19:53:21;2.43;;;2.23;;
10041;SDS011;5061;49.068;12.058;2022-08-25T19:56:42;3.90;;;2.67;;
10041;SDS011;5061;49.068;12.058;2022-08-25T20:00:05;3.13;;;2.70;;
10041;SDS011;5061;49.068;12.058;2022-08-25T20:03:28;2.33;;;2.13;;
10041;SDS011;5061;49.068;12.058;2022-08-25T20:06:49;5.47;;;3.17;;
10041;SDS011;5061;49.068;12.058;2022-08-25T20:10:10;2.20;;;2.00;;
10041;SDS011;5061;49.068;12.058;2022-08-25T20:13:32;2.57;;;2.37;;
10041;SDS011;5061;49.068;12.058;2022-08-25T20:16:53;2.80;;;2.60;;
10041;SDS011;5061;49.068;12.058;2022-08-25T20:20:15;2.70;;;2.40;;
10041;SDS011;5061;49.068;12.058;2022-08-25T20:23:39;2.50;;;2.30;;
10041;SDS011;5061;49.068;12.058;2022-08-25T20:27:19;2.97;;;2.30;;
10041;SDS011;5061;49.068;12.058;2022-08-25T20:30:42;2.30;;;2.10;;
10041;SDS011;5061;49.068;12.058;2022-08-25T20:34:03;2.30;;;2.10;;
10041;SDS011;5061;49.068;12.058;2022-08-25T20:37:24;4.13;;;2.80;;
10041;SDS011;5061;49.068;12.058;2022-08-25T20:40:45;3.07;;;2.23;;
10041;SDS011;5061;49.068;12.058;2022-08-25T20:44:06;4.10;;;2.50;;
10041;SDS011;5061;49.068;12.058;2022-08-25T20:47:27;2.93;;;2.67;;
10041;SDS011;5061;49.068;12.058;2022-08-25T20:50:48;3.60;;;3.30;;
10041;SDS011;5061;49.068;12.058;2022-08-25T20:54:12;3.27;;;2.77;;
10041;SDS011;5061;49.068;12.058;2022-08-25T20:57:33;3.00;;;2.80;;
10041;SDS011;5061;49.068;12.058;2022-08-25T21:00:54;3.53;;;2.80;;
10041;SDS011;5061;49.068;12.058;2022-08-25T21:04:15;4.07;;;3.20;;
10041;SDS011;5061;49.068;12.058;2022-08-25T21:07:37;2.90;;;2.60;;
10041;SDS011;5061;49.068;12.058;2022-08-25T21:10:58;2.90;;;2.70;;
10041;SDS011;5061;49.068;12.058;2022-08-25T21:14:18;2.43;;;2.23;;
10041;SDS011;5061;49.068;12.058;2022-08-25T21:17:40;3.10;;;2.57;;
10041;SDS011;5061;49.068;12.058;2022-08-25T21:21:09;2.50;;;2.30;;
10041;SDS011;5061;49.068;12.058;2022-08-25T21:24:33;2.10;;;1.90;;
10041;SDS011;5061;49.068;12.058;2022-08-25T21:27:53;2.33;;;2.13;;
10041;SDS011;5061;49.068;12.058;2022-08-25T21:31:15;4.03;;;2.53;;
10041;SDS011;5061;49.068;12.058;2022-08-25T21:34:37;2.20;;;1.93;;
10041;SDS011;5061;49.068;12.058;2022-08-25T21:37:58;2.17;;;1.97;;
10041;SDS011;5061;49.068;12.058;2022-08-25T21:41:20;3.87;;;2.47;;
10041;SDS011;5061;49.068;12.058;2022-08-25T21:44:42;2.53;;;2.33;;
10041;SDS011;5061;49.068;12.058;2022-08-25T21:48:03;2.23;;;1.97;;
10041;SDS011;5061;49.068;12.058;2022-08-25T21:51:36;2.77;;;2.57;;
10041;SDS011;5061;49.068;12.058;2022-08-25T21:54:59;2.83;;;2.37;;
10041;SDS011;5061;49.068;12.058;2022-08-25T21:58:21;2.47;;;2.27;;
10041;SDS011;5061;49.068;12.058;2022-08-25T22:01:42;2.63;;;2.07;;
10041;SDS011;5061;49.068;12.058;2022-08-25T22:05:04;4.30;;;2.57;;
10041;SDS011;5061;49.068;12.058;2022-08-25T22:08:26;2.07;;;1.93;;